ADVERTISEMENT

iOS app on App Store Android app on Google Play

2018 \ Legacy Runners 10th Annual Malibu Half Marathon & 5K Run/Walk - November 4, 2018

Notes Pages Download Filter By
  1 2 3 4 5 6 7 8 9 10 11 12 13 14 15 16 17 18 19 [20] 21 22 23




Keyword Exact  
Division

Bib First Name Last Name City Chip Pace Gun Division Division Total Sex Place Gender Total Overall Total Runners
1003 Jeffrey Kaye Glendale 02:50:14 00:13:00 03:03:43 M 65-69 17 795 873 1901 2245
1525 Jarrod Rock Oxnard 02:50:14 00:13:00 03:01:12 M 35-39 157 794 873 1900 2245
2427 Cindia Velasco La Puente 02:50:15 00:13:00 03:00:40 F 30-34 233 1107 1371 1903 2245
1678 Tegan Cramer Los Angeles 02:50:17 00:13:00 03:03:29 F 20-24 163 1108 1371 1904 2245
2265 Genese Scott North Hollywood 02:50:20 00:13:01 03:00:40 F 50-54 91 1109 1371 1905 2245
256 Ofelia Trevino San Francisco 02:50:20 00:13:01 03:04:09 F 30-34 233 1110 1371 1906 2245
2394 pok maley Eagle River 02:50:35 00:13:02 02:55:57 F 65-69 13 1111 1371 1907 2245
2393 Marti Maley Los Angeles 02:50:36 00:13:02 02:55:55 F 25-29 280 1112 1371 1908 2245
1508 Rhea Raper Arcadia 02:50:44 00:13:02 03:01:19 F 45-49 140 1113 1371 1909 2245
3278 Jenna Frum Santa Monica 02:50:54 00:13:03 02:50:53 F 20-24 163 1114 1371 1910 2245
199 Michelle Atoa Los Angeles 02:50:56 00:13:03 03:01:50 F 40-44 150 1115 1371 1911 2245
2327 Diana Huerta Baldwin Park 02:51:09 00:13:04 02:51:39 F 35-39 191 1116 1371 1912 2245
1264 desiree mandelbaum Los Angeles 02:51:13 00:13:05 03:03:25 F 35-39 191 1117 1371 1913 2245
2105 Jagdish Belgaum South Pasadena 02:51:13 00:13:05 03:01:42 M 50-54 57 797 873 1914 2245
2017 Heather Lewis Santa Monica 02:51:14 00:13:05 02:56:15 F 40-44 150 1118 1371 1915 2245
3277 Troy Ritter Santa Monica 02:51:15 00:13:05 02:51:14 M 20-24 57 798 873 1916 2245
2617 Marchanille Folley BERKELEY HTS 02:51:15 00:13:05 03:04:55 F 55-59 65 1119 1371 1917 2245
918 Kaitlin Lee Dublin 02:51:20 00:13:05 03:01:39 F 20-24 163 1120 1371 1918 2245
819 Meg Dennis Irvine 02:51:28 00:13:06 03:02:10 F 65-69 13 1121 1371 1919 2245
2437 Joshua Perry Rancho Cucamonga 02:51:30 00:13:06 03:02:04 M 25-29 145 799 873 1920 2245
714 Todd Johnson Temple City 02:51:43 00:13:07 03:01:45 M 45-49 93 800 873 1921 2245
845 Margaret Canon Knolla Van Nuys 02:51:45 00:13:07 02:58:15 F 50-54 91 1122 1371 1922 2245
915 Miguel Luna Santa Monica 02:51:54 00:13:08 02:56:17 M 40-44 95 801 873 1923 2245
913 Aarika Chilson Santa Monica 02:51:54 00:13:08 02:56:17 F 35-39 191 1123 1371 1924 2245
1537 Arlene Asuncion Los Angeles 02:51:55 00:13:08 03:02:56 F 30-34 233 1124 1371 1925 2245
2061 Melissa Bautista Los Angeles 02:51:58 00:13:08 03:02:03 F 35-39 191 1125 1371 1926 2245
1490 janet wilson Northridge 02:51:58 00:13:08 03:02:02 F 55-59 65 1126 1371 1927 2245
2329 Leonida Williamson Goleta 02:51:59 00:13:08 03:02:18 F 45-49 140 1127 1371 1928 2245
2124 Emmanuel Cordero Moreno Valley 02:52:09 00:13:09 03:04:27 M 35-39 157 802 873 1929 2245
14 Glenn Fujioka Foothill Ranch 02:52:18 00:13:10 02:58:19 M 60-64 25 803 873 1930 2245
404 Yvonne ramirez Whittier 02:52:23 00:13:10 02:56:45 F 55-59 65 1128 1371 1931 2245
2256 Maura Fulton Ann Arbor 02:52:34 00:13:11 03:04:32 F 30-34 233 1129 1371 1932 2245
2453 Jaemi Nies Tujunga 02:52:36 00:13:11 03:06:14 F 40-44 150 1130 1371 1933 2245
226 Farnoosh Zamani Santa Monica 02:52:40 00:13:11 03:04:07 F 45-49 140 1131 1371 1934 2245
1621 David Luu Monterey Park 02:52:41 00:13:11 03:02:47 M 25-29 145 804 873 1935 2245
26 Glen McGill Malibu 02:52:43 00:13:12 03:08:00 M 50-54 57 805 873 1936 2245
289 Zoila Galeano Burbank 02:52:48 00:13:12 03:03:08 F 45-49 140 1132 1371 1937 2245
89 Roland Hicks Modesto 02:52:49 00:13:12 02:59:08 M 65-69 17 806 873 1938 2245
3208 Karen Mayberry Moorpark 02:52:53 00:13:12 03:04:58 F 55-59 65 1133 1371 1939 2245
1650 Esther Gang Los Angeles 02:52:53 00:13:12 03:03:26 F 30-34 233 1134 1371 1940 2245
2528 Lil Serafin Abellon II Monrovia 02:52:54 00:13:12 03:08:18 M 40-44 95 807 873 1941 2245
72 mark asbill Los Alamitos 02:53:03 00:13:13 03:03:39 M 65-69 17 808 873 1942 2245
2055 Pittawat Pamornchaisirikij West Covina 02:53:08 00:13:13 02:59:08 M 30-34 153 809 873 1943 2245
2053 Zandy Sabio Los Angeles 02:53:12 00:13:14 03:03:54 F 25-29 280 1135 1371 1944 2245
1588 Shirley Boes Moorpark 02:53:25 00:13:15 03:07:02 F 50-54 91 1136 1371 1945 2245
1628 Wilder Gutierrez Santa Monica 02:53:39 00:13:16 03:09:00 M 40-44 95 810 873 1946 2245
1393 Francesca Alicea Burbank 02:53:46 00:13:16 02:58:22 F 65-69 13 1137 1371 1947 2245
1482 Ange Lanik Dana Point 02:53:48 00:13:17 02:55:27 F 35-39 191 1138 1371 1948 2245
894 Belinda Simonian Los Angeles 02:53:58 00:13:17 03:04:14 F 60-64 22 1139 1371 1949 2245
1015 Baris Sahin Tinley Park 02:54:06 00:13:18 03:04:12 M 40-44 95 811 873 1950 2245
1014 Elif Sahin Tinley Park 02:54:06 00:13:18 03:04:12 F 35-39 191 1140 1371 1951 2245
2366 Stephanie Crowder Seattle 02:54:10 00:13:18 03:07:46 F 30-34 233 1141 1371 1952 2245
1387 Lilly Canterbury Moorpark 02:54:19 00:13:19 03:05:07 F 40-44 150 1142 1371 1953 2245
988 Margarita Nachevnik Los Angeles 02:54:27 00:13:20 03:05:24 F 25-29 280 1143 1371 1954 2245
1721 Barry Morrill Torrance 02:54:29 00:13:20 03:05:11 M 60-64 25 812 873 1955 2245
2562 Donna Kumamoto Torrance 02:54:31 00:13:20 03:05:12 F 60-64 22 1144 1371 1956 2245
844 Lucie Pham Los Angeles 02:54:41 00:13:21 02:59:43 F 45-49 140 1145 1371 1957 2245
1179 Angela Carlin Santa Monica 02:54:48 00:13:21 03:00:55 F 35-39 191 1146 1371 1958 2245
772 tawni gomes Ventura 02:54:49 00:13:21 03:05:04 F 50-54 91 1147 1371 1959 2245
3221 Kim Karant Massapequa 02:54:49 00:13:21 02:54:54 F 45-49 140 1148 1371 1960 2245
3219 Cassie Hackman Seymour 02:54:51 00:13:21 02:54:56 F 25-29 280 1149 1371 1961 2245
21 Melanie Palmer Los Angeles 02:54:52 00:13:21 03:04:53 F 35-39 191 1150 1371 1962 2245
1551 Nan Ran-Santos Cypress 02:55:08 00:13:23 03:09:22 F 45-49 140 1151 1371 1963 2245
2188 Janet Chacon Santa Barbara 02:55:20 00:13:24 03:10:42 F 45-49 140 1152 1371 1964 2245
181 Nicholas Carpenter Laguna Niguel 02:55:20 00:13:24 02:56:35 M 65-69 17 813 873 1966 2245
180 Zoey Carpenter Laguna Niguel 02:55:20 00:13:24 02:56:35 F 40-44 150 1153 1371 1965 2245
1106 Rosalinda Garnica Riverside 02:55:30 00:13:24 03:07:04 F 45-49 140 1154 1371 1967 2245
860 Christina Nguyen Camarillo 02:55:31 00:13:24 03:05:19 F 25-29 280 1155 1371 1968 2245
3210 Mary Dearing Woodland Hills 02:55:35 00:13:25 03:06:41 F 60-64 22 1156 1371 1969 2245
248 Agata Mikolajczyk Los Angeles 02:55:46 00:13:26 03:05:43 F 30-34 233 1157 1371 1970 2245
83 Tom Kowal Los Angeles 02:55:47 00:13:26 03:05:43 M 25-29 145 814 873 1971 2245
2472 Arun Madhav Thousand Oaks 02:55:52 00:13:26 03:06:20 M 55-59 50 815 873 1972 2245
464 Sylvia Carrillo Diamond Bar 02:55:53 00:13:26 03:10:03 F 40-44 150 1158 1371 1973 2245
1461 Donna Manley Tatum 02:56:05 00:13:27 03:09:03 F 40-44 150 1159 1371 1974 2245
191 Carol Silva Watsonville 02:56:12 00:13:28 02:56:55 F 55-59 65 1160 1371 1975 2245
516 Barry Schneider Santa Monica 02:56:13 00:13:28 03:06:51 M 60-64 25 816 873 1976 2245
2035 Benjamin Gabon Jr. Anaheim 02:56:18 00:13:28 03:11:23 M 30-34 153 817 873 1977 2245
1608 Marielena Mata San Diego 02:56:23 00:13:28 03:07:57 F 45-49 140 1161 1371 1978 2245
2504 Michelina Jornov Latham 02:56:32 00:13:29 03:08:26 F 40-44 150 1162 1371 1979 2245
709 Warren Mullisen Culver City 02:56:33 00:13:29 02:57:39 M 70-74 5 818 873 1980 2245
1945 Samantha Zelevansky Burbank 02:56:36 00:13:29 03:08:15 F 40-44 150 1163 1371 1981 2245
1944 Mark Horstmeyer Burbank 02:56:36 00:13:29 03:08:15 M 70-74 5 819 873 1982 2245
2403 Tiffany Mantaring West Hollywood 02:56:39 00:13:30 03:09:07 F 25-29 280 1164 1371 1983 2245
2289 Erin Easterwood Acworth 02:56:42 00:13:30 03:06:51 F 20-24 163 1165 1371 1984 2245
1510 Kiri Bamrungpong Monrovia 02:56:48 00:13:30 03:07:21 M 20-24 57 820 873 1985 2245
1692 Kimberly Frankel West Hills 02:56:56 00:13:31 03:08:13 F 50-54 91 1166 1371 1986 2245
1105 Joel Garnica Riverside 02:56:59 00:13:31 03:08:32 M 45-49 93 821 873 1987 2245
1624 Liz Babu Oxnard 02:57:01 00:13:31 03:10:40 F 35-39 191 1167 1371 1988 2245
1681 Laura Levitt Ventura 02:57:02 00:13:31 03:10:40 F 45-49 140 1168 1371 1989 2245
217 Gladys Hurtado Corona 02:57:08 00:13:32 03:02:22 F 35-39 191 1169 1371 1990 2245
3282 Orla Grimes Dublin 6 02:57:16 00:13:32 03:10:11 F 50-54 91 1170 1371 1991 2245
720 Lucy Larson Malibu 02:57:19 00:13:33 03:03:34 F 55-59 65 1171 1371 1992 2245
697 Erica Hsu Los Angeles 02:57:23 00:13:33 03:02:46 F 25-29 280 1172 1371 1993 2245
877 Cheryl Mondloch San Diego 02:57:26 00:13:33 03:03:31 F 30-34 233 1173 1371 1994 2245
1698 David Archuleta Palmdale 02:57:33 00:13:34 03:08:48 M 55-59 50 822 873 1995 2245
1453 Crystal Pitcher Los Angeles 02:57:39 00:13:34 03:08:22 F 45-49 140 1174 1371 1996 2245
2627 Jason Bahk Sherman Oaks 02:57:49 00:13:35 03:09:25 M 35-39 157 823 873 1997 2245
250 Chris Hume Canyon Country 02:57:51 00:13:35 03:11:16 M 45-49 93 824 873 1998 2245
2358 Alana Joyal Seattle 02:57:52 00:13:35 03:12:55 F 50-54 91 1175 1371 1999 2245
249 Intira Hume Canyon Country 02:57:53 00:13:35 03:11:16 F 40-44 150 1176 1371 2000 2245
Notes Pages Download Filter By
  1 2 3 4 5 6 7 8 9




Keyword Exact  
Division

Bib First Name Last Name City Chip Pace Gun Division Division Place Division Total Sex Place Gender Total Overall Total Runners
Not Found